createdAt,value
2019-02-17T00:01:18.241Z,21.23
2019-02-17T00:03:47.206Z,22.75
2019-02-17T00:06:16.430Z,22.87
2019-02-17T00:08:45.469Z,20.88
2019-02-17T00:11:15.103Z,20.52
2019-02-17T00:13:44.064Z,22.00
2019-02-17T00:16:13.039Z,22.25
2019-02-17T00:18:42.215Z,21.60
2019-02-17T00:21:11.439Z,22.13
2019-02-17T00:23:40.484Z,21.20
2019-02-17T00:26:09.501Z,20.82
2019-02-17T00:28:38.535Z,21.07
2019-02-17T00:31:07.504Z,19.73
2019-02-17T00:33:36.477Z,21.93
2019-02-17T00:36:05.438Z,20.27
2019-02-17T00:38:34.534Z,20.35
2019-02-17T00:41:03.579Z,23.15
2019-02-17T00:43:32.739Z,19.42
2019-02-17T00:46:01.718Z,19.60
2019-02-17T00:48:30.801Z,19.52
2019-02-17T00:50:59.776Z,18.60
2019-02-17T00:53:28.744Z,19.05
2019-02-17T00:55:57.722Z,19.12
2019-02-17T00:58:26.771Z,19.62
2019-02-17T01:00:56.860Z,18.15
2019-02-17T01:03:25.912Z,20.27
2019-02-17T01:05:55.456Z,19.25
2019-02-17T01:08:24.418Z,20.32
2019-02-17T01:10:53.440Z,20.97
2019-02-17T01:13:22.416Z,17.65
2019-02-17T01:15:51.374Z,19.48
2019-02-17T01:18:20.348Z,18.32
2019-02-17T01:20:49.477Z,19.35
2019-02-17T01:23:18.485Z,19.73
2019-02-17T01:25:47.523Z,17.82
2019-02-17T01:28:16.495Z,18.95
2019-02-17T01:30:45.520Z,18.73
2019-02-17T01:33:14.549Z,18.45
2019-02-17T01:35:43.686Z,18.75
2019-02-17T01:38:12.708Z,21.20
2019-02-17T01:40:41.710Z,21.07
2019-02-17T01:43:10.690Z,20.97
2019-02-17T01:45:39.710Z,18.05
2019-02-17T01:48:08.695Z,18.30
2019-02-17T01:50:37.761Z,17.05
2019-02-17T01:53:06.827Z,18.65
2019-02-17T01:55:35.798Z,17.23
2019-02-17T01:58:04.767Z,18.10
2019-02-17T02:00:33.735Z,17.90
2019-02-17T02:03:02.709Z,20.70
2019-02-17T02:05:31.744Z,18.37
2019-02-17T02:08:00.814Z,17.95
2019-02-17T02:10:29.768Z,18.50
2019-02-17T02:12:58.792Z,18.15
2019-02-17T02:15:27.756Z,20.77
2019-02-17T02:17:56.720Z,18.15
2019-02-17T02:20:26.239Z,20.30
2019-02-17T02:22:55.280Z,18.07
2019-02-17T02:25:24.333Z,18.32
2019-02-17T02:27:53.516Z,19.05
2019-02-17T02:30:22.527Z,16.35
2019-02-17T02:32:51.518Z,17.30
2019-02-17T02:35:20.700Z,18.30
2019-02-17T02:37:49.678Z,17.23
2019-02-17T02:40:18.712Z,18.30
2019-02-17T02:42:48.009Z,18.82
2019-02-17T02:45:16.976Z,17.62
2019-02-17T02:47:46.021Z,18.27
2019-02-17T02:50:14.988Z,18.07
2019-02-17T02:52:44.063Z,20.30
2019-02-17T02:55:13.091Z,18.40
2019-02-17T02:57:42.042Z,18.55
2019-02-17T03:00:12.933Z,20.05
2019-02-17T03:02:41.961Z,17.95
2019-02-17T03:05:11.208Z,19.35
2019-02-17T03:07:40.245Z,20.90
2019-02-17T03:10:10.600Z,16.42
2019-02-17T03:12:39.557Z,17.55
2019-02-17T03:15:09.262Z,16.60
2019-02-17T03:17:38.253Z,17.95
2019-02-17T03:20:09.768Z,15.65
2019-02-17T03:22:38.794Z,17.73
2019-02-17T03:25:08.144Z,17.57
2019-02-17T03:27:37.169Z,16.37
2019-02-17T03:30:09.504Z,16.65
2019-02-17T03:32:38.551Z,16.30
2019-02-17T03:35:08.363Z,16.20
2019-02-17T03:37:37.421Z,17.52
2019-02-17T03:40:08.727Z,17.32
2019-02-17T03:42:37.893Z,17.62
2019-02-17T03:45:09.514Z,16.50
2019-02-17T03:47:38.668Z,17.40
2019-02-17T03:50:08.218Z,18.82
2019-02-17T03:52:37.270Z,18.23
2019-02-17T03:55:06.506Z,15.48
2019-02-17T03:57:35.539Z,17.48
2019-02-17T04:00:16.634Z,17.17
2019-02-17T04:02:37.083Z,17.60
2019-02-17T04:05:07.014Z,20.35
2019-02-17T04:07:36.101Z,16.27
2019-02-17T04:10:06.563Z,18.82
2019-02-17T04:12:35.530Z,17.15
2019-02-17T04:15:05.478Z,18.17
2019-02-17T04:17:34.585Z,15.78
2019-02-17T04:20:03.743Z,17.25
2019-02-17T04:22:33.043Z,15.43
2019-02-17T04:25:02.059Z,17.70
2019-02-17T04:27:31.084Z,16.35
2019-02-17T04:30:00.062Z,18.12
2019-02-17T04:32:29.089Z,17.42
2019-02-17T04:34:58.079Z,17.75
2019-02-17T04:37:28.060Z,15.40
2019-02-17T04:39:57.089Z,17.65
2019-02-17T04:42:26.110Z,18.95
2019-02-17T04:44:55.092Z,19.10
2019-02-17T04:47:24.056Z,16.20
2019-02-17T04:49:53.038Z,17.62
2019-02-17T04:52:22.083Z,16.37
2019-02-17T04:54:51.214Z,17.70
2019-02-17T04:57:20.192Z,19.32
2019-02-17T04:59:49.310Z,16.42
2019-02-17T05:02:18.521Z,17.60
2019-02-17T05:04:47.523Z,17.40
2019-02-17T05:07:16.507Z,16.75
2019-02-17T05:09:45.485Z,17.48
2019-02-17T05:12:14.485Z,16.00
2019-02-17T05:14:43.441Z,18.70
2019-02-17T05:17:12.424Z,17.00
2019-02-17T05:19:41.502Z,17.75
2019-02-17T05:22:10.555Z,18.12
2019-02-17T05:24:39.528Z,20.20
2019-02-17T05:27:08.591Z,18.23
2019-02-17T05:29:37.562Z,17.65
2019-02-17T05:32:06.523Z,18.45
2019-02-17T05:34:35.519Z,18.52
2019-02-17T05:37:04.510Z,20.75
2019-02-17T05:39:33.495Z,20.25
2019-02-17T05:42:02.565Z,19.15
2019-02-17T05:44:31.700Z,18.23
2019-02-17T05:47:00.802Z,16.65
2019-02-17T05:49:29.766Z,19.55
2019-02-17T05:51:58.723Z,20.15
2019-02-17T05:54:27.724Z,21.80
2019-02-17T05:56:56.829Z,23.57
2019-02-17T05:59:25.799Z,26.23
2019-02-17T06:01:54.991Z,28.27
2019-02-17T06:04:24.155Z,28.57
2019-02-17T06:06:53.260Z,31.65
2019-02-17T06:09:22.273Z,27.30
2019-02-17T06:11:51.251Z,25.35
2019-02-17T06:14:20.212Z,27.60
2019-02-17T06:16:49.191Z,31.95
2019-02-17T06:19:18.182Z,33.40
2019-02-17T06:21:47.264Z,27.70
2019-02-17T06:24:16.232Z,22.65
2019-02-17T06:26:45.211Z,29.72
2019-02-17T06:29:14.187Z,26.85
2019-02-17T06:31:43.222Z,24.30
2019-02-17T06:34:12.188Z,23.02
2019-02-17T06:36:41.258Z,28.45
2019-02-17T06:39:10.523Z,27.17
2019-02-17T06:41:39.501Z,22.93
2019-02-17T06:44:08.470Z,21.40
2019-02-17T06:46:39.085Z,22.52
2019-02-17T06:49:08.134Z,20.90
2019-02-17T06:51:37.114Z,31.00
2019-02-17T06:54:06.084Z,25.75
2019-02-17T06:56:36.800Z,25.92
2019-02-17T06:59:05.801Z,25.25
2019-02-17T07:01:34.776Z,28.02
2019-02-17T07:04:04.120Z,29.00
2019-02-17T07:06:34.738Z,24.20
2019-02-17T07:09:05.210Z,25.70
2019-02-17T07:11:34.276Z,23.52
2019-02-17T07:14:03.266Z,28.35
2019-02-17T07:16:32.237Z,37.15
2019-02-17T07:19:01.211Z,32.23
2019-02-17T07:21:30.199Z,25.85
2019-02-17T07:26:41.720Z,32.80
2019-02-17T07:29:10.808Z,33.48
2019-02-17T07:31:39.773Z,28.85
2019-02-17T07:34:08.780Z,27.27
2019-02-17T07:36:37.756Z,26.60
2019-02-17T07:39:06.732Z,32.88
2019-02-17T07:41:35.700Z,52.70
2019-02-17T07:44:04.784Z,56.53
2019-02-17T07:46:34.032Z,60.55
2019-02-17T07:49:03.069Z,63.28
2019-02-17T07:51:32.054Z,46.60
2019-02-17T07:54:01.224Z,49.05
2019-02-17T07:56:30.266Z,53.17
2019-02-17T07:58:59.295Z,47.90
2019-02-17T08:01:28.294Z,48.60
2019-02-17T08:03:57.263Z,49.18
2019-02-17T08:06:26.237Z,46.70
2019-02-17T08:08:55.200Z,43.90
2019-02-17T08:11:24.155Z,38.38
2019-02-17T08:13:53.159Z,43.02
2019-02-17T08:16:22.318Z,46.33
2019-02-17T08:18:51.697Z,38.95
2019-02-17T08:21:20.709Z,39.33
2019-02-17T08:23:49.692Z,40.20
2019-02-17T08:26:18.737Z,39.58
2019-02-17T08:28:48.025Z,41.63
2019-02-17T08:31:17.281Z,36.98
2019-02-17T08:33:46.410Z,38.17
2019-02-17T08:36:15.460Z,39.90
2019-02-17T08:38:44.432Z,36.25
2019-02-17T08:41:13.393Z,37.63
2019-02-17T08:43:42.379Z,37.63
2019-02-17T08:46:11.360Z,35.68
2019-02-17T08:48:40.327Z,32.10
2019-02-17T08:51:09.323Z,32.30
2019-02-17T08:53:38.313Z,36.68
2019-02-17T08:56:07.294Z,36.50
2019-02-17T08:58:36.267Z,35.85
2019-02-17T09:01:05.325Z,34.65
2019-02-17T09:03:34.359Z,34.10
2019-02-17T09:06:03.353Z,31.82
2019-02-17T09:08:32.458Z,34.20
2019-02-17T09:11:01.440Z,30.62
2019-02-17T09:13:30.467Z,32.25
2019-02-17T09:15:59.450Z,32.58
2019-02-17T09:18:28.486Z,34.60
2019-02-17T09:20:57.577Z,30.60
2019-02-17T09:23:26.549Z,35.52
2019-02-17T09:25:55.618Z,32.20
2019-02-17T09:28:24.587Z,30.68
2019-02-17T09:30:53.559Z,32.40
2019-02-17T09:33:22.556Z,30.48
2019-02-17T09:35:51.531Z,33.00
2019-02-17T09:38:20.523Z,30.75
2019-02-17T09:40:49.561Z,30.55
2019-02-17T09:43:18.576Z,31.60
2019-02-17T09:45:47.554Z,29.40
2019-02-17T09:48:16.517Z,29.32
2019-02-17T09:50:45.562Z,29.50
2019-02-17T09:53:14.520Z,29.30
2019-02-17T09:55:43.489Z,29.48
2019-02-17T09:58:13.446Z,29.55
2019-02-17T10:00:42.410Z,29.27
2019-02-17T10:03:11.378Z,29.40
2019-02-17T10:05:40.355Z,29.52
2019-02-17T10:08:09.312Z,26.52
2019-02-17T10:10:38.322Z,33.23
2019-02-17T10:13:07.375Z,28.60
2019-02-17T10:15:36.337Z,28.02
2019-02-17T10:18:05.337Z,27.25
2019-02-17T10:20:34.480Z,29.10
2019-02-17T10:23:03.442Z,27.20
2019-02-17T10:25:32.388Z,26.70
2019-02-17T10:28:01.356Z,28.70
2019-02-17T10:30:30.418Z,29.12
2019-02-17T10:32:59.465Z,28.83
2019-02-17T10:35:28.452Z,26.73
2019-02-17T10:37:57.496Z,27.42
2019-02-17T10:40:26.460Z,26.27
2019-02-17T10:42:55.475Z,23.87
2019-02-17T10:45:24.448Z,28.60
2019-02-17T10:47:53.485Z,31.10
2019-02-17T10:50:22.502Z,27.55
2019-02-17T10:52:51.470Z,28.40
2019-02-17T10:55:20.455Z,23.85
2019-02-17T10:57:49.450Z,25.52
2019-02-17T11:00:20.751Z,26.85
2019-02-17T11:02:49.742Z,26.50
2019-02-17T11:05:18.737Z,25.27
2019-02-17T11:07:48.140Z,24.43
2019-02-17T11:10:17.154Z,26.77
2019-02-17T11:12:46.400Z,22.05
2019-02-17T11:15:19.970Z,25.90
2019-02-17T11:17:49.058Z,30.05
2019-02-17T11:20:18.308Z,27.40
2019-02-17T11:22:47.362Z,28.07
2019-02-17T11:25:16.399Z,29.87
2019-02-17T11:27:45.472Z,27.62
2019-02-17T11:30:17.587Z,31.27
2019-02-17T11:32:57.198Z,25.15
2019-02-17T11:35:17.432Z,23.47
2019-02-17T11:37:46.667Z,26.82
2019-02-17T11:40:15.921Z,27.70
2019-02-17T11:42:44.956Z,30.25
2019-02-17T11:45:19.253Z,28.73
2019-02-17T11:47:48.317Z,26.77
2019-02-17T11:50:17.476Z,26.07
2019-02-17T11:52:46.610Z,28.98
2019-02-17T11:55:16.453Z,31.75
2019-02-17T11:57:45.702Z,27.93
2019-02-17T12:00:22.135Z,28.10
2019-02-17T12:02:51.087Z,27.37
2019-02-17T12:05:20.150Z,26.48
2019-02-17T12:07:49.210Z,29.30
2019-02-17T12:10:20.838Z,37.70
2019-02-17T12:12:49.867Z,27.52
2019-02-17T12:15:18.982Z,28.92
2019-02-17T12:17:48.084Z,26.87
2019-02-17T12:20:22.818Z,28.40
2019-02-17T12:22:53.423Z,30.48
2019-02-17T12:25:24.058Z,32.80
2019-02-17T12:27:57.739Z,35.05
2019-02-17T12:30:26.909Z,30.85
2019-02-17T12:32:55.891Z,28.25
2019-02-17T12:35:25.366Z,32.83
2019-02-17T12:37:54.412Z,28.25
2019-02-17T12:40:23.375Z,28.12
2019-02-17T12:42:52.360Z,24.82
2019-02-17T12:45:21.336Z,25.92
2019-02-17T12:47:57.501Z,26.37
2019-02-17T12:50:21.329Z,24.52
2019-02-17T12:52:50.380Z,25.62
2019-02-17T12:55:19.403Z,20.95
2019-02-17T12:57:48.372Z,20.20
2019-02-17T13:00:18.263Z,26.02
2019-02-17T13:02:47.238Z,21.27
2019-02-17T13:05:16.203Z,19.75
2019-02-17T13:07:45.187Z,23.60
2019-02-17T13:10:14.154Z,22.70
2019-02-17T13:12:43.135Z,21.90
2019-02-17T13:15:15.989Z,18.73
2019-02-17T13:17:44.992Z,20.95
2019-02-17T13:20:15.383Z,20.10
2019-02-17T13:22:44.445Z,19.40
2019-02-17T13:25:15.826Z,20.05
2019-02-17T13:27:45.021Z,18.73
2019-02-17T13:30:26.157Z,20.08
2019-02-17T13:32:55.126Z,20.40
2019-02-17T13:35:24.101Z,24.52
2019-02-17T13:37:53.133Z,22.70
2019-02-17T13:40:22.160Z,20.72
2019-02-17T13:42:51.187Z,29.30
2019-02-17T13:45:20.469Z,16.35
2019-02-17T13:47:49.425Z,15.20
2019-02-17T13:50:18.470Z,15.20
2019-02-17T13:52:47.433Z,21.12
2019-02-17T13:55:16.405Z,17.92
2019-02-17T13:57:45.375Z,18.23
2019-02-17T14:00:20.874Z,16.42
2019-02-17T14:02:49.888Z,22.60
2019-02-17T14:05:18.919Z,19.67
2019-02-17T14:07:47.948Z,23.57
2019-02-17T14:10:16.995Z,18.82
2019-02-17T14:12:46.005Z,22.37
2019-02-17T14:15:20.006Z,20.02
2019-02-17T14:17:49.007Z,20.20
2019-02-17T14:20:18.075Z,17.67
2019-02-17T14:22:47.067Z,15.32
2019-02-17T14:25:16.084Z,19.20
2019-02-17T14:27:45.088Z,16.93
2019-02-17T14:30:16.465Z,18.57
2019-02-17T14:32:45.437Z,23.70
2019-02-17T14:35:14.823Z,18.12
2019-02-17T14:37:43.784Z,15.98
2019-02-17T14:40:13.940Z,15.68
2019-02-17T14:42:43.245Z,16.77
2019-02-17T14:45:15.323Z,14.28
2019-02-17T14:47:44.625Z,16.40
2019-02-17T14:50:14.151Z,18.60
2019-02-17T14:52:43.141Z,14.75
2019-02-17T14:55:12.850Z,13.20
2019-02-17T14:57:41.943Z,16.23
2019-02-17T15:00:13.278Z,15.10
2019-02-17T15:02:42.315Z,16.10
2019-02-17T15:05:11.782Z,15.88
2019-02-17T15:07:40.821Z,15.90
2019-02-17T15:10:14.315Z,18.25
2019-02-17T15:12:43.674Z,15.32
2019-02-17T15:15:14.984Z,14.07
2019-02-17T15:17:44.057Z,13.08
2019-02-17T15:20:21.538Z,17.95
2019-02-17T15:22:50.537Z,16.37
2019-02-17T15:25:19.504Z,15.43
2019-02-17T15:27:48.460Z,16.93
2019-02-17T15:30:18.273Z,18.23
2019-02-17T15:32:47.608Z,16.07
2019-02-17T15:35:16.582Z,16.93
2019-02-17T15:37:45.628Z,18.65
2019-02-17T15:40:15.328Z,17.07
2019-02-17T15:42:44.573Z,17.27
2019-02-17T15:45:15.163Z,15.50
2019-02-17T15:47:44.240Z,17.50
2019-02-17T15:50:14.736Z,19.45
2019-02-17T15:52:43.829Z,17.77
2019-02-17T15:55:14.319Z,16.42
2019-02-17T15:57:43.278Z,14.50
2019-02-17T16:00:17.396Z,14.80
2019-02-17T16:02:46.474Z,14.45
2019-02-17T16:05:15.457Z,10.98
2019-02-17T16:07:44.821Z,15.93
2019-02-17T16:10:15.517Z,15.90
2019-02-17T16:12:44.738Z,14.33
2019-02-17T16:15:25.484Z,16.90
2019-02-17T16:17:54.552Z,14.20
2019-02-17T16:20:23.853Z,14.58
2019-02-17T16:22:52.930Z,11.93
2019-02-17T16:25:21.970Z,11.50
2019-02-17T16:27:50.939Z,14.03
2019-02-17T16:30:21.655Z,12.45
2019-02-17T16:32:50.668Z,14.55
2019-02-17T16:35:19.635Z,13.10
2019-02-17T16:37:48.591Z,13.40
2019-02-17T16:40:18.502Z,11.57
2019-02-17T16:42:47.466Z,12.95
2019-02-17T16:45:16.499Z,13.95
2019-02-17T16:47:45.977Z,13.85
2019-02-17T16:50:23.437Z,11.65
2019-02-17T16:52:52.421Z,13.65
2019-02-17T16:55:21.662Z,13.58
2019-02-17T16:57:50.686Z,11.85
2019-02-17T17:00:24.635Z,10.95
2019-02-17T17:02:54.827Z,11.60
2019-02-17T17:05:24.762Z,13.00
2019-02-17T17:07:54.010Z,11.85
2019-02-17T17:10:23.030Z,12.75
2019-02-17T17:12:52.080Z,14.90
2019-02-17T17:15:21.181Z,18.00
2019-02-17T17:17:50.272Z,15.60
2019-02-17T17:20:20.586Z,13.98
2019-02-17T17:22:49.589Z,13.98
2019-02-17T17:25:18.546Z,16.32
2019-02-17T17:27:47.665Z,9.88
2019-02-17T17:30:18.084Z,12.15
2019-02-17T17:32:47.089Z,11.22
2019-02-17T17:35:16.055Z,10.60
2019-02-17T17:37:45.132Z,11.53
2019-02-17T17:40:16.285Z,10.35
2019-02-17T17:42:45.449Z,15.32
2019-02-17T17:45:16.772Z,11.65
2019-02-17T17:47:46.075Z,12.58
2019-02-17T17:50:16.481Z,11.95
2019-02-17T17:52:45.485Z,13.18
2019-02-17T17:55:14.553Z,14.03
2019-02-17T17:57:43.681Z,15.23
2019-02-17T18:00:18.418Z,14.47
2019-02-17T18:02:47.598Z,15.68
2019-02-17T18:05:16.762Z,18.10
2019-02-17T18:07:45.863Z,13.60
2019-02-17T18:10:16.077Z,13.25
2019-02-17T18:12:45.628Z,12.70
2019-02-17T18:15:19.287Z,15.43
2019-02-17T18:17:54.605Z,12.47
2019-02-17T18:20:18.925Z,12.20
2019-02-17T18:22:47.909Z,13.70
2019-02-17T18:25:17.066Z,10.95
2019-02-17T18:27:46.175Z,12.47
2019-02-17T18:30:19.384Z,12.23
2019-02-17T18:32:48.450Z,13.60
2019-02-17T18:35:20.305Z,12.63
2019-02-17T18:37:48.229Z,12.82
2019-02-17T18:40:18.869Z,11.38
2019-02-17T18:42:48.073Z,13.68
2019-02-17T18:45:17.491Z,11.68
2019-02-17T18:47:46.565Z,18.42
2019-02-17T18:50:17.169Z,17.60
2019-02-17T18:52:46.195Z,21.30
2019-02-17T18:55:15.662Z,20.75
2019-02-17T18:57:49.946Z,23.22
2019-02-17T19:00:20.578Z,18.67
2019-02-17T19:02:49.574Z,47.75
2019-02-17T19:05:21.688Z,19.95
2019-02-17T19:07:49.311Z,20.77
2019-02-17T19:10:18.459Z,18.42
2019-02-17T19:12:47.509Z,17.85
2019-02-17T19:15:23.728Z,20.32
2019-02-17T19:17:52.714Z,20.52
2019-02-17T19:20:27.287Z,18.87
2019-02-17T19:22:56.365Z,16.37
2019-02-17T19:25:25.402Z,18.75
2019-02-17T19:27:54.846Z,15.48
2019-02-17T19:30:24.003Z,14.47
2019-02-17T19:32:54.676Z,14.10
2019-02-17T19:35:23.863Z,13.90
2019-02-17T19:37:52.922Z,16.27
2019-02-17T19:40:22.035Z,12.98
2019-02-17T19:42:51.077Z,20.55
2019-02-17T19:45:20.298Z,17.52
2019-02-17T19:47:49.345Z,13.80
2019-02-17T19:50:18.335Z,12.43
2019-02-17T19:52:47.294Z,13.58
2019-02-17T19:55:16.263Z,13.60
2019-02-17T19:57:45.457Z,13.95
2019-02-17T20:00:21.672Z,13.70
2019-02-17T20:03:01.242Z,14.47
2019-02-17T20:05:31.836Z,13.00
2019-02-17T20:08:00.828Z,14.53
2019-02-17T20:10:29.856Z,14.45
2019-02-17T20:12:58.904Z,16.52
2019-02-17T20:15:29.543Z,14.90
2019-02-17T20:17:58.508Z,16.77
2019-02-17T20:20:27.557Z,14.83
2019-02-17T20:22:56.635Z,14.45
2019-02-17T20:25:25.678Z,15.20
2019-02-17T20:27:54.641Z,12.98
2019-02-17T20:30:23.776Z,17.52
2019-02-17T20:32:52.753Z,14.60
2019-02-17T20:35:22.367Z,11.90
2019-02-17T20:37:51.377Z,13.40
2019-02-17T20:40:20.363Z,14.25
2019-02-17T20:42:49.330Z,14.90
2019-02-17T20:45:18.326Z,13.20
2019-02-17T20:47:47.299Z,12.63
2019-02-17T20:50:17.500Z,15.35
2019-02-17T20:52:46.674Z,11.33
2019-02-17T20:55:15.798Z,11.53
2019-02-17T20:57:45.065Z,13.72
2019-02-17T21:00:22.736Z,13.30
2019-02-17T21:02:52.016Z,12.13
2019-02-17T21:05:21.123Z,11.55
2019-02-17T21:07:50.107Z,13.68
2019-02-17T21:10:19.215Z,13.18
2019-02-17T21:12:48.251Z,11.28
2019-02-17T21:15:18.961Z,11.53
2019-02-17T21:17:47.918Z,15.13
2019-02-17T21:20:17.671Z,10.93
2019-02-17T21:22:46.642Z,11.53
2019-02-17T21:25:15.749Z,11.95
2019-02-17T21:27:44.743Z,12.53
2019-02-17T21:30:15.827Z,12.53
2019-02-17T21:32:44.916Z,11.38
2019-02-17T21:35:17.270Z,12.30
2019-02-17T21:37:46.594Z,11.33
2019-02-17T21:40:15.713Z,13.15
2019-02-17T21:42:44.731Z,13.68
2019-02-17T21:45:15.328Z,13.03
2019-02-17T21:47:44.361Z,11.53
2019-02-17T21:50:14.577Z,10.78
2019-02-17T21:52:43.665Z,12.07
2019-02-17T21:55:14.061Z,11.08
2019-02-17T21:57:43.030Z,13.75
2019-02-17T22:00:20.368Z,11.97
2019-02-17T22:02:49.623Z,12.45
2019-02-17T22:05:19.916Z,12.88
2019-02-17T22:07:49.078Z,15.55
2019-02-17T22:10:19.766Z,11.18
2019-02-17T22:12:51.026Z,12.82
2019-02-17T22:15:21.987Z,13.20
2019-02-17T22:17:50.994Z,12.85
2019-02-17T22:20:20.035Z,12.60
2019-02-17T22:22:49.074Z,12.20
2019-02-17T22:25:18.095Z,14.75
2019-02-17T22:27:47.102Z,11.50
2019-02-17T22:30:16.397Z,11.63
2019-02-17T22:32:45.436Z,11.05
2019-02-17T22:35:15.635Z,13.15
2019-02-17T22:37:44.694Z,11.63
2019-02-17T22:40:15.916Z,13.65
2019-02-17T22:42:44.956Z,14.95
2019-02-17T22:45:14.288Z,15.13
2019-02-17T22:47:43.263Z,13.48
2019-02-17T22:50:14.069Z,15.80
2019-02-17T22:52:44.897Z,13.32
2019-02-17T22:55:14.735Z,15.68
2019-02-17T22:57:43.756Z,13.45
2019-02-17T23:00:18.430Z,14.43
2019-02-17T23:02:47.403Z,15.88
2019-02-17T23:05:16.445Z,14.63
2019-02-17T23:07:45.640Z,17.48
2019-02-17T23:10:14.691Z,15.00
2019-02-17T23:12:43.692Z,14.73
2019-02-17T23:15:12.783Z,15.30
2019-02-17T23:17:41.925Z,13.70
2019-02-17T23:20:11.037Z,15.43
2019-02-17T23:22:40.092Z,14.25
2019-02-17T23:25:09.983Z,13.80
2019-02-17T23:27:38.942Z,15.10
2019-02-17T23:30:10.270Z,15.85
2019-02-17T23:32:39.297Z,16.97
2019-02-17T23:35:08.411Z,14.70
2019-02-17T23:37:37.429Z,16.27
2019-02-17T23:40:11.189Z,15.30
2019-02-17T23:42:40.160Z,16.75
2019-02-17T23:45:12.035Z,15.28
2019-02-17T23:47:41.075Z,16.15
2019-02-17T23:50:12.024Z,14.40
2019-02-17T23:52:41.014Z,15.60
2019-02-17T23:55:11.518Z,16.40
2019-02-17T23:57:40.570Z,15.88
